Time;durP1;ratioP1;P1;durP2;ratioP2;P2;SDS_P1;SDS_P2;PMS_P1;PMS_P2;Temp;Humidity;BMP_temperature;BMP_pressure;BME280_temperature;BME280_humidity;BME280_pressure;Samples;Min_cycle;Max_cycle;Signal;HPM_P1;HPM_P2
2024/03/23 00:00:06;;;;;;;10.33;2.73;;;9.30;99.90;;;;;;5070486;28;20233;-71
2024/03/23 00:02:36;;;;;;;9.67;2.70;;;9.10;99.90;;;;;;5087592;28;20719;-72
2024/03/23 00:05:07;;;;;;;9.93;3.57;;;9.10;99.90;;;;;;5087554;28;20725;-72
2024/03/23 00:07:36;;;;;;;9.97;2.53;;;9.00;99.90;;;;;;5087487;28;20206;-72
2024/03/23 00:10:07;;;;;;;11.20;3.23;;;9.10;99.90;;;;;;5087089;28;20199;-72
2024/03/23 00:12:36;;;;;;;8.10;2.70;;;9.10;99.90;;;;;;5074626;28;20215;-72
2024/03/23 00:15:07;;;;;;;10.87;3.10;;;9.00;99.90;;;;;;5067134;28;20241;-71
2024/03/23 00:17:36;;;;;;;7.27;2.40;;;9.10;99.90;;;;;;5066908;28;20269;-71
2024/03/23 00:20:07;;;;;;;9.03;2.43;;;9.10;99.90;;;;;;5083077;28;20214;-72
2024/03/23 00:22:36;;;;;;;10.40;2.57;;;9.20;99.90;;;;;;5086639;28;20748;-72
2024/03/23 00:25:07;;;;;;;9.63;3.80;;;9.10;99.90;;;;;;5086942;28;20211;-71
2024/03/23 00:27:36;;;;;;;11.50;3.20;;;9.10;99.90;;;;;;5086555;28;20317;-72
2024/03/23 00:30:07;;;;;;;8.20;2.87;;;9.20;99.90;;;;;;5087129;28;20211;-71
2024/03/23 00:32:37;;;;;;;12.37;3.20;;;9.20;99.90;;;;;;5086782;28;20292;-72
2024/03/23 00:35:07;;;;;;;10.73;3.07;;;9.30;99.90;;;;;;5082157;28;20682;-73
2024/03/23 00:37:37;;;;;;;13.57;3.03;;;9.30;99.90;;;;;;5082642;28;20214;-72
2024/03/23 00:40:09;;;;;;;9.33;3.07;;;9.40;99.90;;;;;;5087130;28;20215;-73
2024/03/23 00:42:38;;;;;;;11.57;2.80;;;9.40;99.90;;;;;;5087085;28;20215;-71
2024/03/23 00:45:09;;;;;;;7.57;2.33;;;9.40;99.90;;;;;;5086899;28;20206;-72
2024/03/23 00:47:38;;;;;;;7.33;2.40;;;9.40;99.90;;;;;;5086596;28;20298;-71
2024/03/23 00:50:09;;;;;;;10.67;3.27;;;9.40;99.90;;;;;;5086708;28;20266;-72
2024/03/23 00:52:38;;;;;;;7.13;2.60;;;9.50;99.90;;;;;;5086235;28;20214;-71
2024/03/23 00:55:07;;;;;;;9.47;2.83;;;9.50;99.90;;;;;;5086410;28;20425;-71
2024/03/23 00:57:33;;;;;;;9.50;2.80;;;9.50;99.90;;;;;;5086835;28;20210;-71
2024/03/23 01:00:00;;;;;;;11.00;3.00;;;9.50;99.90;;;;;;5087110;28;20203;-72
2024/03/23 01:02:26;;;;;;;8.53;2.80;;;9.50;99.90;;;;;;5086082;28;20231;-72
2024/03/23 01:04:53;;;;;;;9.97;3.13;;;9.50;99.90;;;;;;5086858;28;20238;-72
2024/03/23 01:07:19;;;;;;;9.43;3.60;;;9.50;99.90;;;;;;5086603;28;20627;-72
2024/03/23 01:09:45;;;;;;;9.37;2.77;;;9.50;99.90;;;;;;5086498;28;20285;-72
2024/03/23 01:12:13;;;;;;;10.77;2.90;;;9.40;99.90;;;;;;5086655;28;20669;-71
2024/03/23 01:14:40;;;;;;;9.60;3.00;;;9.30;99.90;;;;;;5085787;28;20290;-71
2024/03/23 01:17:05;;;;;;;11.67;3.67;;;9.30;99.90;;;;;;5085683;28;20699;-71
2024/03/23 01:19:32;;;;;;;9.23;2.87;;;9.40;99.90;;;;;;5086669;28;20246;-71
2024/03/23 01:21:58;;;;;;;10.00;2.70;;;9.40;99.90;;;;;;5086499;28;20222;-71
2024/03/23 01:24:25;;;;;;;11.27;3.17;;;9.40;99.90;;;;;;5083745;28;20668;-72
2024/03/23 01:26:51;;;;;;;8.20;2.53;;;9.40;99.90;;;;;;5086422;28;20230;-72
2024/03/23 01:29:19;;;;;;;9.37;3.23;;;9.40;99.90;;;;;;5087122;28;20234;-71
2024/03/23 01:31:45;;;;;;;6.93;2.47;;;9.40;99.90;;;;;;5085977;28;20786;-72
2024/03/23 01:34:12;;;;;;;12.47;3.47;;;9.40;99.90;;;;;;5086876;28;20260;-71
2024/03/23 01:36:38;;;;;;;9.90;3.00;;;9.40;99.90;;;;;;5086242;28;20241;-72
2024/03/23 01:39:09;;;;;;;10.00;2.77;;;9.40;99.90;;;;;;5086816;28;20555;-72
2024/03/23 01:41:35;;;;;;;7.23;2.60;;;9.40;99.90;;;;;;5086766;28;20276;-71
2024/03/23 01:44:07;;;;;;;11.90;2.83;;;9.40;99.90;;;;;;5087149;28;20231;-71
2024/03/23 01:46:34;;;;;;;7.60;2.67;;;9.40;99.90;;;;;;5086569;28;20327;-72
2024/03/23 01:49:01;;;;;;;10.93;3.07;;;9.40;99.90;;;;;;5087405;28;20207;-72
2024/03/23 01:51:28;;;;;;;6.27;2.87;;;9.30;99.90;;;;;;5084327;28;20681;-72
2024/03/23 01:53:57;;;;;;;11.27;2.90;;;9.30;99.90;;;;;;5086844;28;20202;-72
2024/03/23 01:56:23;;;;;;;6.23;2.33;;;9.30;99.90;;;;;;5084705;28;20305;-74
2024/03/23 01:58:50;;;;;;;11.40;3.30;;;9.40;99.90;;;;;;5066798;28;20286;-73
2024/03/23 02:01:15;;;;;;;7.70;2.50;;;9.40;99.90;;;;;;5066700;28;20303;-74
2024/03/23 02:03:44;;;;;;;8.33;2.83;;;9.40;99.90;;;;;;5065903;28;20250;-74
2024/03/23 02:06:10;;;;;;;8.73;2.60;;;9.30;99.90;;;;;;5065690;28;20290;-74
2024/03/23 02:08:37;;;;;;;10.07;2.70;;;9.30;99.90;;;;;;5086039;28;20222;-73
2024/03/23 02:11:03;;;;;;;7.57;2.40;;;9.20;99.90;;;;;;5086136;28;20939;-73
2024/03/23 02:13:31;;;;;;;8.90;2.43;;;9.20;99.90;;;;;;5085715;28;20298;-73
2024/03/23 02:15:57;;;;;;;10.07;2.40;;;9.20;99.90;;;;;;5086686;28;20195;-72
2024/03/23 02:18:24;;;;;;;8.20;2.60;;;9.20;99.90;;;;;;5086467;28;20210;-72
2024/03/23 02:20:51;;;;;;;7.90;2.90;;;9.00;99.90;;;;;;5085897;28;20206;-72
2024/03/23 02:23:19;;;;;;;10.30;2.87;;;9.00;99.90;;;;;;5088114;28;20219;-72
2024/03/23 02:25:45;;;;;;;7.97;2.63;;;9.00;99.90;;;;;;5089652;28;20199;-71
2024/03/23 02:28:12;;;;;;;8.67;2.47;;;8.90;99.90;;;;;;5086750;28;20237;-72
2024/03/23 02:30:38;;;;;;;7.27;2.87;;;9.00;99.90;;;;;;5089636;28;20676;-72
2024/03/23 02:33:05;;;;;;;11.60;2.87;;;9.00;99.90;;;;;;5089546;28;20293;-72
2024/03/23 02:35:31;;;;;;;8.17;2.47;;;9.10;99.90;;;;;;5089752;28;20217;-72
2024/03/23 02:37:59;;;;;;;6.77;2.50;;;9.10;99.90;;;;;;5089818;28;20281;-72
2024/03/23 02:40:27;;;;;;;7.87;2.70;;;9.10;99.90;;;;;;5089596;28;20203;-71
2024/03/23 02:42:54;;;;;;;14.03;2.90;;;9.10;99.90;;;;;;5089259;28;20218;-72
2024/03/23 02:45:20;;;;;;;8.23;2.70;;;9.10;99.90;;;;;;5089288;28;20583;-72
2024/03/23 02:47:51;;;;;;;12.87;3.00;;;9.10;99.90;;;;;;5089674;28;20311;-72
2024/03/23 02:50:17;;;;;;;5.83;2.83;;;9.10;99.90;;;;;;5089734;28;20201;-72
2024/03/23 02:52:44;;;;;;;10.97;3.40;;;9.00;99.90;;;;;;5089071;28;20278;-73
2024/03/23 02:55:10;;;;;;;8.07;2.50;;;9.00;99.90;;;;;;5089218;28;20294;-73
2024/03/23 02:57:39;;;;;;;6.87;2.50;;;9.10;99.90;;;;;;5089054;28;20217;-71
2024/03/23 03:00:07;;;;;;;8.53;2.73;;;9.10;99.90;;;;;;5089310;28;20207;-71
2024/03/23 03:02:33;;;;;;;8.60;2.57;;;9.10;99.90;;;;;;5089308;28;20221;-71
2024/03/23 03:04:59;;;;;;;10.80;2.80;;;9.10;99.90;;;;;;5089400;28;20662;-71
2024/03/23 03:07:26;;;;;;;6.67;2.67;;;9.00;99.90;;;;;;5088484;28;20797;-71
2024/03/23 03:09:52;;;;;;;7.27;2.40;;;9.00;99.90;;;;;;5088893;28;20293;-71
2024/03/23 03:12:19;;;;;;;7.50;3.00;;;8.90;99.90;;;;;;5087989;28;20297;-71
2024/03/23 03:14:46;;;;;;;12.17;3.47;;;8.90;99.90;;;;;;5088332;28;20321;-71
2024/03/23 03:17:13;;;;;;;10.70;3.03;;;8.90;99.90;;;;;;5085892;28;20662;-71
2024/03/23 03:19:39;;;;;;;8.00;2.73;;;8.90;99.90;;;;;;5088029;28;20713;-71
2024/03/23 03:22:06;;;;;;;11.47;3.00;;;8.80;99.90;;;;;;5088466;28;20227;-72
2024/03/23 03:24:32;;;;;;;11.60;3.00;;;8.80;99.90;;;;;;5088150;28;20218;-72
2024/03/23 03:26:59;;;;;;;11.00;3.27;;;8.70;99.90;;;;;;5088771;28;20280;-72
2024/03/23 03:29:25;;;;;;;10.27;3.27;;;8.70;99.90;;;;;;5088250;28;20279;-72
2024/03/23 03:31:53;;;;;;;9.70;2.77;;;8.70;99.90;;;;;;5088247;28;20242;-72
2024/03/23 03:34:19;;;;;;;10.13;3.47;;;8.60;99.90;;;;;;5088192;28;20293;-72
2024/03/23 03:36:46;;;;;;;7.93;2.53;;;8.60;99.90;;;;;;5088336;28;20290;-72
2024/03/23 03:39:12;;;;;;;11.60;3.30;;;8.60;99.90;;;;;;5087810;28;20303;-72
2024/03/23 03:41:39;;;;;;;7.13;2.97;;;8.60;99.90;;;;;;5088062;28;20764;-72
2024/03/23 03:44:05;;;;;;;11.70;3.07;;;8.70;99.90;;;;;;5088255;28;20696;-71
2024/03/23 03:46:32;;;;;;;6.50;2.63;;;8.70;99.90;;;;;;5088129;28;20209;-71
2024/03/23 03:48:59;;;;;;;11.93;3.13;;;8.70;99.90;;;;;;5079873;28;20282;-72
2024/03/23 03:51:26;;;;;;;7.13;3.00;;;8.70;99.90;;;;;;5068320;28;20215;-72
2024/03/23 03:53:52;;;;;;;7.87;2.60;;;8.60;99.90;;;;;;5068455;28;20213;-72
2024/03/23 03:56:18;;;;;;;8.63;2.37;;;8.50;99.90;;;;;;5070433;28;20207;-72
2024/03/23 03:58:44;;;;;;;8.90;2.87;;;8.50;99.90;;;;;;5088085;28;20213;-72
2024/03/23 04:01:11;;;;;;;9.83;3.03;;;8.50;99.90;;;;;;5087522;28;20203;-71
2024/03/23 04:03:39;;;;;;;9.73;3.20;;;8.50;99.90;;;;;;5087709;28;20323;-71
2024/03/23 04:06:07;;;;;;;8.43;3.00;;;8.50;99.90;;;;;;5087391;28;20637;-72
2024/03/23 04:08:33;;;;;;;7.97;2.33;;;8.50;99.90;;;;;;5087615;28;20290;-72
2024/03/23 04:11:00;;;;;;;7.77;3.37;;;8.50;99.90;;;;;;5087184;28;20212;-72
2024/03/23 04:13:26;;;;;;;12.20;3.27;;;8.40;99.90;;;;;;5086386;28;20683;-72
2024/03/23 04:15:55;;;;;;;9.77;2.70;;;8.50;99.90;;;;;;5087871;28;20183;-72
2024/03/23 04:18:21;;;;;;;7.63;2.60;;;8.50;99.90;;;;;;5087554;28;20282;-72
2024/03/23 04:20:48;;;;;;;6.80;3.07;;;8.40;99.90;;;;;;5087203;28;20570;-71
2024/03/23 04:23:15;;;;;;;7.77;2.57;;;8.30;99.90;;;;;;5087152;28;20737;-72
2024/03/23 04:25:42;;;;;;;10.83;2.70;;;8.20;99.90;;;;;;5087238;28;20206;-72
2024/03/23 04:28:08;;;;;;;11.70;2.93;;;8.20;99.90;;;;;;5087277;28;20310;-72
2024/03/23 04:30:35;;;;;;;9.77;3.70;;;8.20;99.90;;;;;;5087583;28;20311;-72
2024/03/23 04:33:01;;;;;;;7.77;2.50;;;8.20;99.90;;;;;;5087473;28;20674;-72
2024/03/23 04:35:28;;;;;;;12.70;3.17;;;8.20;99.90;;;;;;5087631;28;20234;-72
2024/03/23 04:37:55;;;;;;;6.70;2.00;;;8.20;99.90;;;;;;5087250;28;20230;-71
2024/03/23 04:40:23;;;;;;;7.33;2.10;;;8.00;99.90;;;;;;5087403;28;20205;-71
2024/03/23 04:42:50;;;;;;;8.40;2.70;;;7.90;99.90;;;;;;5087336;28;20297;-71
2024/03/23 04:45:17;;;;;;;7.07;2.03;;;7.90;99.90;;;;;;5086884;28;20754;-71
2024/03/23 04:47:44;;;;;;;7.80;2.20;;;7.90;99.90;;;;;;5087141;28;20286;-71
2024/03/23 04:50:11;;;;;;;6.80;2.30;;;7.90;99.90;;;;;;5087491;28;20209;-71
2024/03/23 04:52:38;;;;;;;4.43;2.30;;;7.80;99.90;;;;;;5086764;28;20182;-71
2024/03/23 04:55:05;;;;;;;5.30;1.87;;;7.80;99.90;;;;;;5087259;28;20307;-71
2024/03/23 04:57:34;;;;;;;5.50;2.17;;;7.70;99.90;;;;;;5087230;28;20203;-71
2024/03/23 05:00:00;;;;;;;8.67;2.10;;;7.70;99.90;;;;;;5087070;28;20286;-71
2024/03/23 05:02:27;;;;;;;3.30;1.40;;;7.70;99.90;;;;;;5087048;28;20309;-71
2024/03/23 05:04:53;;;;;;;3.33;1.47;;;7.70;99.90;;;;;;5086932;28;20238;-71
2024/03/23 05:07:19;;;;;;;4.00;1.80;;;7.70;99.90;;;;;;5086691;28;20209;-71
2024/03/23 05:09:45;;;;;;;4.60;1.50;;;7.80;99.90;;;;;;5084473;28;20365;-71
2024/03/23 05:12:12;;;;;;;4.00;1.87;;;8.00;99.90;;;;;;5086887;28;20199;-71
2024/03/23 05:14:40;;;;;;;2.77;1.70;;;8.00;99.90;;;;;;5085493;28;20329;-71
2024/03/23 05:17:08;;;;;;;5.63;2.40;;;8.10;99.90;;;;;;5086672;28;20211;-72
2024/03/23 05:19:33;;;;;;;5.20;1.63;;;8.20;99.90;;;;;;5083998;28;20195;-73
2024/03/23 05:22:00;;;;;;;2.40;1.30;;;8.20;99.90;;;;;;5086623;28;20202;-73
2024/03/23 05:24:26;;;;;;;6.93;1.80;;;8.20;99.90;;;;;;5085906;28;20647;-73
2024/03/23 05:26:53;;;;;;;4.83;1.83;;;8.20;99.90;;;;;;5086414;28;20222;-73
2024/03/23 05:29:19;;;;;;;2.40;1.23;;;7.90;99.90;;;;;;5086491;28;20276;-72
2024/03/23 05:31:52;;;;;;;2.13;1.30;;;7.80;99.90;;;;;;5086640;28;20198;-72
2024/03/23 05:34:18;;;;;;;5.40;1.60;;;7.80;99.90;;;;;;5084552;28;20217;-72
2024/03/23 05:36:45;;;;;;;5.27;1.70;;;7.70;99.90;;;;;;5086672;28;20206;-72
2024/03/23 05:39:11;;;;;;;5.07;1.67;;;7.80;99.90;;;;;;5086089;28;20198;-73
2024/03/23 05:41:38;;;;;;;3.40;1.40;;;7.80;99.90;;;;;;5085947;28;20301;-73
2024/03/23 05:44:04;;;;;;;8.03;1.97;;;7.90;99.90;;;;;;5086711;28;20227;-74
2024/03/23 05:46:31;;;;;;;6.00;1.70;;;7.90;99.90;;;;;;5086630;28;20214;-74
2024/03/23 05:49:02;;;;;;;6.93;1.60;;;7.90;99.90;;;;;;5086645;28;20203;-72
2024/03/23 05:51:29;;;;;;;6.03;1.73;;;7.90;99.90;;;;;;5086593;28;20239;-72
2024/03/23 05:53:55;;;;;;;2.40;1.23;;;7.90;99.90;;;;;;5086069;28;20210;-72
2024/03/23 05:56:22;;;;;;;4.90;1.40;;;8.00;99.90;;;;;;5086726;28;20206;-71
2024/03/23 05:58:48;;;;;;;6.70;1.60;;;8.00;99.90;;;;;;5090468;28;20290;-71
2024/03/23 06:01:15;;;;;;;3.17;1.50;;;8.00;99.90;;;;;;5090397;28;20302;-71
2024/03/23 06:03:43;;;;;;;3.43;1.50;;;7.90;99.90;;;;;;5090874;28;20317;-72
2024/03/23 06:06:12;;;;;;;3.83;2.00;;;8.00;99.90;;;;;;5089275;28;20211;-71
2024/03/23 06:08:38;;;;;;;4.03;1.50;;;8.00;99.90;;;;;;5090027;28;20311;-71
2024/03/23 06:11:06;;;;;;;4.23;1.70;;;8.00;99.90;;;;;;5090009;28;20210;-72
2024/03/23 06:13:32;;;;;;;4.07;1.70;;;8.00;99.90;;;;;;5089939;28;20297;-71
2024/03/23 06:15:59;;;;;;;3.30;1.60;;;8.00;99.90;;;;;;5090277;28;20248;-72
2024/03/23 06:18:25;;;;;;;5.37;2.80;;;8.10;99.90;;;;;;5089873;28;20293;-72
2024/03/23 06:20:52;;;;;;;5.87;1.90;;;8.10;99.90;;;;;;5089585;28;20665;-72
2024/03/23 06:23:20;;;;;;;3.40;1.50;;;8.10;99.90;;;;;;5089820;28;20278;-72
2024/03/23 06:25:47;;;;;;;4.23;1.60;;;8.00;99.90;;;;;;5090368;28;20222;-72
2024/03/23 06:28:13;;;;;;;4.53;1.83;;;8.10;99.90;;;;;;5090160;28;20310;-72
2024/03/23 06:30:40;;;;;;;5.20;1.80;;;8.10;99.90;;;;;;5090107;28;20203;-72
2024/03/23 06:33:06;;;;;;;3.87;1.90;;;8.10;99.90;;;;;;5090203;28;20286;-71
2024/03/23 06:35:33;;;;;;;5.00;1.87;;;8.20;99.90;;;;;;5089723;28;20211;-72
2024/03/23 06:37:59;;;;;;;5.27;1.80;;;8.20;99.90;;;;;;5089668;28;20207;-72
2024/03/23 06:40:27;;;;;;;5.97;1.83;;;8.20;99.90;;;;;;5089432;28;20301;-72
2024/03/23 06:42:53;;;;;;;5.83;1.77;;;8.20;99.90;;;;;;5089681;28;20285;-71
2024/03/23 06:45:22;;;;;;;1.90;1.50;;;8.30;99.90;;;;;;5089558;28;20682;-72
2024/03/23 06:47:49;;;;;;;5.03;2.03;;;8.30;99.90;;;;;;5089438;28;20652;-71
2024/03/23 06:50:16;;;;;;;5.47;2.13;;;8.40;99.90;;;;;;5089559;28;20654;-72
2024/03/23 06:52:42;;;;;;;5.63;1.83;;;8.50;99.90;;;;;;5089221;28;20237;-72
2024/03/23 06:55:09;;;;;;;6.37;1.77;;;8.50;99.90;;;;;;5089185;28;20203;-72
2024/03/23 06:57:36;;;;;;;7.13;2.13;;;8.50;99.90;;;;;;5088500;28;20256;-72
2024/03/23 07:00:04;;;;;;;4.73;2.13;;;8.50;99.90;;;;;;5089428;28;20581;-72
2024/03/23 07:02:30;;;;;;;5.53;1.97;;;8.60;99.90;;;;;;5072882;28;20243;-72
2024/03/23 07:04:57;;;;;;;3.13;2.00;;;8.70;99.90;;;;;;5088529;28;20226;-72
2024/03/23 07:07:23;;;;;;;3.80;1.77;;;8.70;99.90;;;;;;5088817;28;20297;-72
2024/03/23 07:09:50;;;;;;;5.30;2.20;;;8.70;99.90;;;;;;5087991;28;20203;-72
2024/03/23 07:12:16;;;;;;;6.47;2.17;;;8.70;99.90;;;;;;5089469;28;20250;-72
2024/03/23 07:14:45;;;;;;;3.57;1.90;;;8.80;99.90;;;;;;5088428;28;20270;-72
2024/03/23 07:17:11;;;;;;;3.80;2.10;;;8.80;99.90;;;;;;5089168;28;20242;-73
2024/03/23 07:19:38;;;;;;;3.67;1.90;;;8.80;99.90;;;;;;5089019;28;20732;-73
2024/03/23 07:22:04;;;;;;;4.43;1.93;;;8.80;99.90;;;;;;5089066;28;20357;-72
2024/03/23 07:24:32;;;;;;;3.93;1.93;;;8.80;99.90;;;;;;5088115;28;20277;-72
2024/03/23 07:26:58;;;;;;;5.73;2.00;;;8.80;99.90;;;;;;5088462;28;20231;-71
2024/03/23 07:29:25;;;;;;;6.93;2.30;;;8.70;99.90;;;;;;5085849;28;20598;-71
2024/03/23 07:31:52;;;;;;;4.90;2.23;;;8.60;99.90;;;;;;5088403;28;20664;-71
2024/03/23 07:34:19;;;;;;;4.43;1.83;;;8.40;99.90;;;;;;5087978;28;20217;-71
2024/03/23 07:36:45;;;;;;;3.43;1.97;;;8.40;99.90;;;;;;5083372;28;20229;-70
2024/03/23 07:39:12;;;;;;;2.13;1.60;;;8.20;99.90;;;;;;5088590;28;20661;-70
2024/03/23 07:41:38;;;;;;;3.53;1.93;;;8.10;99.90;;;;;;5087838;28;20661;-71
2024/03/23 07:44:05;;;;;;;5.27;1.80;;;8.00;99.90;;;;;;5079051;28;20199;-73
2024/03/23 07:46:31;;;;;;;4.67;1.90;;;8.00;99.90;;;;;;5068316;28;20207;-73
2024/03/23 07:48:59;;;;;;;3.63;1.63;;;7.90;99.90;;;;;;5068243;28;20218;-73
2024/03/23 07:51:25;;;;;;;4.07;2.00;;;7.90;99.90;;;;;;5067909;28;20282;-73
2024/03/23 07:53:53;;;;;;;5.87;2.23;;;7.90;99.90;;;;;;5067677;28;20669;-72
2024/03/23 07:56:19;;;;;;;2.40;1.57;;;8.00;99.90;;;;;;5070952;28;20222;-72
2024/03/23 07:58:46;;;;;;;6.23;2.43;;;8.00;99.90;;;;;;5088085;28;20203;-72
2024/03/23 08:01:14;;;;;;;2.37;1.77;;;8.00;99.90;;;;;;5088213;28;20283;-71
2024/03/23 08:03:42;;;;;;;4.90;2.13;;;7.90;99.90;;;;;;5083711;28;20590;-71
2024/03/23 08:06:12;;;;;;;5.53;2.20;;;7.90;99.90;;;;;;5087539;28;20301;-71
2024/03/23 08:08:39;;;;;;;5.27;2.23;;;8.00;99.90;;;;;;5087488;28;20722;-71
2024/03/23 08:11:06;;;;;;;3.73;2.00;;;8.00;99.90;;;;;;5087723;28;20289;-71
2024/03/23 08:13:33;;;;;;;6.00;2.10;;;8.00;99.90;;;;;;5087872;28;20307;-71
2024/03/23 08:16:00;;;;;;;4.47;1.80;;;8.00;99.90;;;;;;5087953;28;20277;-72
2024/03/23 08:18:27;;;;;;;7.83;1.70;;;8.00;99.90;;;;;;5087464;28;20673;-72
2024/03/23 08:20:57;;;;;;;8.80;2.07;;;8.00;99.90;;;;;;5086666;28;20298;-72
2024/03/23 08:23:25;;;;;;;4.00;1.70;;;8.00;99.90;;;;;;5087406;28;20284;-72
2024/03/23 08:25:51;;;;;;;4.33;1.70;;;8.00;99.90;;;;;;5086977;28;20688;-72
2024/03/23 08:28:18;;;;;;;3.00;1.50;;;8.00;99.90;;;;;;5086686;28;20229;-73
2024/03/23 08:30:44;;;;;;;3.93;1.80;;;8.10;99.90;;;;;;5087274;28;20290;-72
2024/03/23 08:33:11;;;;;;;2.10;1.80;;;8.00;99.90;;;;;;5086912;28;20229;-72
2024/03/23 08:35:37;;;;;;;3.33;1.50;;;7.90;99.90;;;;;;5087143;28;20195;-73
2024/03/23 08:38:04;;;;;;;8.43;1.87;;;8.00;99.90;;;;;;5087109;28;20729;-73
2024/03/23 08:40:31;;;;;;;4.77;1.37;;;7.90;99.90;;;;;;5086896;28;20322;-73
2024/03/23 08:42:58;;;;;;;2.80;1.57;;;7.90;99.90;;;;;;5069257;28;20210;-72
2024/03/23 08:45:24;;;;;;;3.10;1.77;;;7.80;99.90;;;;;;5073066;28;20230;-72
2024/03/23 08:47:51;;;;;;;2.93;1.50;;;7.80;99.90;;;;;;5087786;28;20293;-71
2024/03/23 08:50:17;;;;;;;4.77;1.20;;;7.80;99.90;;;;;;5087011;28;20209;-72
2024/03/23 08:52:45;;;;;;;3.23;1.20;;;7.80;99.90;;;;;;5084663;28;20210;-72
2024/03/23 08:55:11;;;;;;;3.40;1.20;;;7.70;99.90;;;;;;5085588;28;20635;-72
2024/03/23 08:57:39;;;;;;;4.43;1.30;;;7.70;99.90;;;;;;5086719;28;20206;-72
2024/03/23 09:00:08;;;;;;;1.83;1.23;;;7.70;99.90;;;;;;5086942;28;20635;-72
2024/03/23 09:02:35;;;;;;;2.17;1.00;;;7.70;99.90;;;;;;5086959;28;20215;-71
2024/03/23 09:05:04;;;;;;;2.23;1.23;;;7.70;99.90;;;;;;5086718;28;20230;-73
2024/03/23 09:07:31;;;;;;;3.57;1.20;;;7.70;99.90;;;;;;5087170;28;20214;-72
2024/03/23 09:09:57;;;;;;;4.17;1.30;;;7.70;99.90;;;;;;5084357;28;20637;-72
2024/03/23 09:12:24;;;;;;;5.13;1.80;;;7.70;99.90;;;;;;5085610;28;20300;-71
2024/03/23 09:14:53;;;;;;;2.77;1.47;;;7.60;99.90;;;;;;5084864;28;20269;-71
2024/03/23 09:17:20;;;;;;;3.90;1.20;;;7.70;99.90;;;;;;5084971;28;20207;-72
2024/03/23 09:19:47;;;;;;;6.57;1.80;;;7.70;99.90;;;;;;5085077;28;20299;-72
2024/03/23 09:22:13;;;;;;;3.80;1.60;;;7.70;99.90;;;;;;5085129;28;20262;-72
2024/03/23 09:24:39;;;;;;;7.17;1.90;;;7.70;99.90;;;;;;5084423;28;20266;-72
2024/03/23 09:27:06;;;;;;;4.07;1.57;;;7.70;99.90;;;;;;5084286;28;20258;-72
2024/03/23 09:29:32;;;;;;;6.47;2.00;;;7.70;99.90;;;;;;5084496;28;20208;-72
2024/03/23 09:32:00;;;;;;;2.83;1.30;;;7.70;99.90;;;;;;5085846;28;20217;-72
2024/03/23 09:34:26;;;;;;;1.93;1.40;;;7.60;99.90;;;;;;5089006;28;20234;-72
2024/03/23 09:36:53;;;;;;;3.13;1.30;;;7.60;99.90;;;;;;5088248;28;20343;-72
2024/03/23 09:39:19;;;;;;;3.73;1.73;;;7.60;99.90;;;;;;5088185;28;20290;-72
2024/03/23 09:41:46;;;;;;;5.00;1.77;;;7.70;99.90;;;;;;5074605;28;20203;-72
2024/03/23 09:44:12;;;;;;;2.97;1.57;;;7.70;99.90;;;;;;5068552;28;20209;-71
2024/03/23 09:46:40;;;;;;;2.60;1.73;;;7.80;99.90;;;;;;5073983;28;20207;-72
2024/03/23 09:49:08;;;;;;;3.07;1.67;;;7.60;99.90;;;;;;5088299;28;20303;-72
2024/03/23 09:51:37;;;;;;;4.43;1.70;;;7.50;99.90;;;;;;5089306;28;20226;-71
2024/03/23 09:54:03;;;;;;;2.50;1.80;;;7.20;99.90;;;;;;5089430;28;20207;-72
2024/03/23 09:56:30;;;;;;;3.53;1.80;;;7.30;99.90;;;;;;5088007;28;20297;-72
2024/03/23 09:59:01;;;;;;;3.43;1.57;;;7.40;99.90;;;;;;5088441;28;20203;-72
2024/03/23 10:01:28;;;;;;;5.63;1.83;;;7.10;99.90;;;;;;5088856;28;20199;-72
2024/03/23 10:03:54;;;;;;;6.40;2.10;;;6.90;99.90;;;;;;5088555;28;20202;-72
2024/03/23 10:06:25;;;;;;;5.20;1.90;;;7.00;99.90;;;;;;5088568;28;20234;-72
2024/03/23 10:08:52;;;;;;;3.17;1.90;;;7.10;99.90;;;;;;5086599;28;20255;-71
2024/03/23 10:11:21;;;;;;;4.50;1.63;;;7.20;99.90;;;;;;5087424;28;20220;-71
2024/03/23 10:13:47;;;;;;;4.30;1.70;;;7.20;99.90;;;;;;5087883;28;20744;-71
2024/03/23 10:16:22;;;;;;;4.20;1.90;;;7.30;99.90;;;;;;5088287;28;20222;-71
2024/03/23 10:18:49;;;;;;;4.17;2.23;;;7.10;99.90;;;;;;5088338;28;20195;-71
2024/03/23 10:21:17;;;;;;;4.20;1.67;;;7.10;99.90;;;;;;5088261;28;20203;-71
2024/03/23 10:23:45;;;;;;;3.80;1.60;;;7.00;99.90;;;;;;5071231;28;20203;-71
2024/03/23 10:26:18;;;;;;;6.43;1.97;;;7.00;99.90;;;;;;5070962;28;20329;-72
2024/03/23 10:28:58;;;;;;;4.87;2.30;;;6.90;99.90;;;;;;5088034;28;20194;-72
2024/03/23 10:31:25;;;;;;;5.53;1.77;;;6.80;99.90;;;;;;5088627;28;20245;-71
2024/03/23 10:33:53;;;;;;;5.40;1.83;;;6.80;99.90;;;;;;5088687;28;20609;-71
2024/03/23 10:36:21;;;;;;;2.80;1.50;;;6.80;99.90;;;;;;5088834;28;20247;-71
2024/03/23 10:38:50;;;;;;;3.90;1.80;;;6.90;99.90;;;;;;5088250;28;20534;-71
2024/03/23 10:41:17;;;;;;;3.30;1.70;;;7.00;99.90;;;;;;5087109;28;20201;-71
2024/03/23 10:43:46;;;;;;;4.87;2.10;;;7.00;99.90;;;;;;5086508;28;20267;-72
2024/03/23 10:46:13;;;;;;;3.57;1.90;;;6.90;99.90;;;;;;5081738;28;20234;-71
2024/03/23 10:48:39;;;;;;;2.70;1.30;;;6.90;99.90;;;;;;5087851;28;20203;-71
2024/03/23 10:51:08;;;;;;;4.27;1.70;;;7.00;99.90;;;;;;5087858;28;20206;-72
2024/03/23 10:53:34;;;;;;;2.70;1.40;;;7.00;99.90;;;;;;5084584;28;20318;-71
2024/03/23 10:56:02;;;;;;;5.87;2.00;;;7.20;99.90;;;;;;5067717;28;20208;-71
2024/03/23 10:58:31;;;;;;;2.57;1.50;;;7.20;99.90;;;;;;5086731;28;20298;-71
2024/03/23 11:00:59;;;;;;;2.83;1.33;;;7.30;99.90;;;;;;5086402;28;20665;-71
2024/03/23 11:03:34;;;;;;;1.47;1.30;;;7.30;99.90;;;;;;5081634;28;20559;-71
2024/03/23 11:06:02;;;;;;;4.10;1.90;;;7.30;99.90;;;;;;5087361;28;20710;-72
2024/03/23 11:08:33;;;;;;;4.03;2.13;;;7.30;99.90;;;;;;5087268;28;20255;-72
2024/03/23 11:11:20;;;;;;;3.67;2.03;;;7.20;99.90;;;;;;5087371;28;20213;-72
2024/03/23 11:13:48;;;;;;;4.13;1.87;;;7.10;99.90;;;;;;5086818;28;20613;-72
2024/03/23 11:16:16;;;;;;;2.77;1.73;;;7.20;99.90;;;;;;5087876;28;20214;-72
2024/03/23 11:18:43;;;;;;;6.03;2.30;;;7.30;99.90;;;;;;5087393;28;20314;-71
2024/03/23 11:21:10;;;;;;;1.77;1.50;;;7.30;99.90;;;;;;5087122;28;20325;-71
2024/03/23 11:23:36;;;;;;;3.97;1.50;;;7.30;99.90;;;;;;5086656;28;20302;-72
2024/03/23 11:26:03;;;;;;;3.93;1.70;;;7.30;99.90;;;;;;5086529;28;20230;-72
2024/03/23 11:28:31;;;;;;;2.17;1.20;;;7.30;99.90;;;;;;5086134;28;20794;-72
2024/03/23 11:30:58;;;;;;;3.53;1.40;;;7.20;99.90;;;;;;5084330;28;20203;-72
2024/03/23 11:33:23;;;;;;;3.50;1.47;;;7.20;99.90;;;;;;5086327;28;20950;-72
2024/03/23 11:35:51;;;;;;;4.13;1.43;;;7.30;99.90;;;;;;5086648;28;20211;-72
2024/03/23 11:38:18;;;;;;;4.77;1.57;;;7.40;99.90;;;;;;5086737;28;20297;-71
2024/03/23 11:40:47;;;;;;;4.57;1.80;;;7.20;99.90;;;;;;5086484;28;20211;-72
2024/03/23 11:43:14;;;;;;;4.73;1.50;;;7.20;99.90;;;;;;5086213;28;20627;-72
2024/03/23 11:45:44;;;;;;;2.77;1.57;;;7.20;99.90;;;;;;5086499;28;20237;-72
2024/03/23 11:48:11;;;;;;;4.37;1.90;;;7.40;99.90;;;;;;5086250;28;20729;-71
2024/03/23 11:50:40;;;;;;;4.77;1.60;;;7.30;99.90;;;;;;5077079;28;20199;-72
2024/03/23 11:53:13;;;;;;;2.07;1.40;;;7.20;99.90;;;;;;5066429;28;20215;-71
2024/03/23 11:55:43;;;;;;;3.53;1.50;;;7.20;99.90;;;;;;5065855;28;20210;-71
2024/03/23 11:58:09;;;;;;;3.80;1.63;;;7.20;99.90;;;;;;5082813;28;20214;-71
2024/03/23 12:00:36;;;;;;;4.03;1.87;;;7.20;99.90;;;;;;5086622;28;20211;-72
2024/03/23 12:03:04;;;;;;;4.20;1.50;;;7.20;99.90;;;;;;5086212;28;20206;-71
2024/03/23 12:05:31;;;;;;;6.23;1.67;;;7.10;99.90;;;;;;5085566;28;20833;-71
2024/03/23 12:08:18;;;;;;;2.50;1.73;;;7.00;99.90;;;;;;5086523;28;20234;-71
2024/03/23 12:10:48;;;;;;;5.47;2.03;;;7.00;99.90;;;;;;5086394;28;20199;-71
2024/03/23 12:13:17;;;;;;;5.23;1.70;;;6.90;99.90;;;;;;5086170;28;20326;-71
2024/03/23 12:15:44;;;;;;;3.23;1.67;;;7.00;99.90;;;;;;5046386;28;20313;-72
2024/03/23 12:18:12;;;;;;;4.93;2.00;;;7.00;99.90;;;;;;5046130;28;20295;-71
2024/03/23 12:20:39;;;;;;;4.53;1.60;;;6.90;99.90;;;;;;5045609;28;20663;-71
2024/03/23 12:23:06;;;;;;;5.93;1.60;;;6.80;99.90;;;;;;5045890;28;20289;-71
2024/03/23 12:25:33;;;;;;;7.27;2.00;;;6.70;99.90;;;;;;5045439;28;20242;-71
2024/03/23 12:27:59;;;;;;;3.53;1.50;;;6.50;99.90;;;;;;5045502;28;20354;-72
2024/03/23 12:30:26;;;;;;;3.73;2.10;;;6.30;99.90;;;;;;5045821;28;20234;-73
2024/03/23 12:32:52;;;;;;;5.60;1.87;;;6.20;99.90;;;;;;5045910;28;20212;-72
2024/03/23 12:35:20;;;;;;;2.50;1.30;;;6.40;99.90;;;;;;5045583;28;20243;-72
2024/03/23 12:37:46;;;;;;;4.30;2.20;;;6.30;99.90;;;;;;5043845;28;20315;-72
2024/03/23 12:40:13;;;;;;;3.00;1.40;;;6.40;99.90;;;;;;5044808;28;20200;-72
2024/03/23 12:42:39;;;;;;;3.23;1.50;;;6.60;99.90;;;;;;5043634;28;20299;-72
2024/03/23 12:45:07;;;;;;;6.47;1.53;;;6.60;99.90;;;;;;5045058;28;20287;-72
2024/03/23 12:47:33;;;;;;;2.93;1.60;;;6.70;99.90;;;;;;5031387;28;20304;-71
2024/03/23 12:50:00;;;;;;;4.80;1.70;;;6.90;99.90;;;;;;5045858;28;20299;-72
2024/03/23 12:52:28;;;;;;;3.50;1.67;;;7.10;99.90;;;;;;5045680;28;20207;-72
2024/03/23 12:54:57;;;;;;;4.97;1.90;;;7.30;99.90;;;;;;5045500;28;20220;-72